Time;durP1;ratioP1;P1;durP2;ratioP2;P2;SDS_P1;SDS_P2;PMS_P1;PMS_P2;Temp;Humidity;BMP_temperature;BMP_pressure;BME280_temperature;BME280_humidity;BME280_pressure;Samples;Min_cycle;Max_cycle;Signal;HPM_P1;HPM_P2
2021/12/15 00:01:17;;;;;;;49.67;35.30;;;;;;;-3.94;100.00;96937.59;6175682;23;20429;-61
2021/12/15 00:03:42;;;;;;;44.22;35.17;;;;;;;-3.95;100.00;96934.19;6177686;23;20008;-61
2021/12/15 00:06:17;;;;;;;42.33;35.35;;;;;;;-3.96;100.00;96929.94;6177448;23;20024;-61
2021/12/15 00:08:44;;;;;;;42.25;32.15;;;;;;;-3.96;100.00;96940.22;6177395;23;20020;-60
2021/12/15 00:11:10;;;;;;;44.35;31.60;;;;;;;-3.98;100.00;96934.25;6177432;23;20050;-61
2021/12/15 00:13:37;;;;;;;45.45;33.30;;;;;;;-4.00;100.00;96933.41;6177122;23;20464;-61
2021/12/15 00:16:03;;;;;;;41.67;32.67;;;;;;;-4.01;100.00;96933.44;6177619;23;20025;-61
2021/12/15 00:18:29;;;;;;;41.67;33.25;;;;;;;-4.03;100.00;96938.59;6178755;23;20020;-61
2021/12/15 00:20:54;;;;;;;50.25;36.42;;;;;;;-4.01;100.00;96939.41;6178403;23;20383;-61
2021/12/15 00:23:20;;;;;;;45.92;32.83;;;;;;;-4.00;100.00;96942.84;6178437;23;20005;-61
2021/12/15 00:25:45;;;;;;;48.45;32.13;;;;;;;-3.92;100.00;96938.44;6177310;23;20011;-61
2021/12/15 00:28:12;;;;;;;53.05;34.22;;;;;;;-3.80;100.00;96935.69;6178233;23;20001;-61
2021/12/15 00:30:38;;;;;;;51.95;34.42;;;;;;;-3.89;100.00;96938.38;6177088;23;20437;-61
2021/12/15 00:33:06;;;;;;;51.75;32.83;;;;;;;-3.90;100.00;96939.25;6177641;23;20012;-61
2021/12/15 00:35:33;;;;;;;47.08;34.05;;;;;;;-3.90;100.00;96934.97;6152065;22;20031;-61
2021/12/15 00:37:58;;;;;;;48.67;34.92;;;;;;;-3.89;100.00;96938.38;6178222;23;20084;-61
2021/12/15 00:40:26;;;;;;;53.67;34.90;;;;;;;-3.91;100.00;96934.97;6178179;23;20033;-61
2021/12/15 00:42:51;;;;;;;45.78;31.02;;;;;;;-3.99;100.00;96929.94;6178275;23;20046;-60
2021/12/15 00:45:17;;;;;;;51.17;32.70;;;;;;;-3.97;100.00;96929.94;6178154;23;20016;-61
2021/12/15 00:47:44;;;;;;;70.90;33.97;;;;;;;-3.96;100.00;96929.94;6178378;23;20028;-61
2021/12/15 00:50:11;;;;;;;46.83;32.60;;;;;;;-3.95;100.00;96935.91;6178600;23;20024;-61
2021/12/15 00:52:39;;;;;;;46.50;31.77;;;;;;;-3.93;100.00;96939.31;6178343;23;20437;-61
2021/12/15 00:55:10;;;;;;;71.72;32.08;;;;;;;-3.93;100.00;96929.88;6178411;23;20012;-61
2021/12/15 00:57:35;;;;;;;51.95;32.95;;;;;;;-3.97;100.00;96925.66;6178476;22;20378;-61
2021/12/15 01:00:03;;;;;;;45.75;30.83;;;;;;;-3.97;100.00;96932.50;6178004;23;20059;-61
2021/12/15 01:02:28;;;;;;;43.88;31.10;;;;;;;-4.02;100.00;96930.00;6178060;23;20020;-61
2021/12/15 01:04:54;;;;;;;42.42;30.42;;;;;;;-4.05;100.00;96927.47;6176934;23;20005;-61
2021/12/15 01:07:20;;;;;;;47.65;31.40;;;;;;;-4.08;100.00;96924.94;6177978;23;20068;-61
2021/12/15 01:09:52;;;;;;;40.40;31.35;;;;;;;-4.06;100.00;96929.22;6178372;23;20005;-61
2021/12/15 01:20:55;;;;;;;36.90;28.77;;;;;;;-4.09;100.00;96928.41;6178049;23;20070;-61
2021/12/15 01:23:25;;;;;;;36.65;27.83;;;;;;;-4.08;100.00;96925.81;6177429;23;20064;-61
2021/12/15 01:26:04;;;;;;;36.10;28.30;;;;;;;-4.06;100.00;96916.34;6177953;23;20020;-61
2021/12/15 01:28:30;;;;;;;33.83;27.67;;;;;;;-4.06;100.00;96924.06;6178075;23;20114;-61
2021/12/15 01:30:57;;;;;;;35.97;28.45;;;;;;;-4.03;100.00;96934.31;6177921;23;20005;-61
2021/12/15 01:33:25;;;;;;;32.35;26.70;;;;;;;-4.03;100.00;96938.59;6177813;23;20131;-60
2021/12/15 01:35:52;;;;;;;30.23;25.58;;;;;;;-3.88;100.00;96945.22;6177956;23;20012;-61
2021/12/15 01:38:20;;;;;;;33.03;26.45;;;;;;;-3.86;100.00;96943.50;6177579;23;20009;-61
2021/12/15 01:40:47;;;;;;;32.88;26.27;;;;;;;-3.84;100.00;96938.31;6177859;23;20028;-61
2021/12/15 01:43:28;;;;;;;51.80;29.08;;;;;;;-3.90;100.00;96940.13;6176513;23;20345;-61
2021/12/15 01:48:42;;;;;;;57.58;30.40;;;;;;;-3.78;100.00;96935.66;6177962;23;20054;-61
2021/12/15 01:51:10;;;;;;;40.00;28.27;;;;;;;-3.72;100.00;96930.44;6178936;23;20091;-61
2021/12/15 01:53:37;;;;;;;40.78;27.58;;;;;;;-3.78;100.00;96927.94;6152973;23;20001;-61
2021/12/15 01:56:04;;;;;;;37.92;28.05;;;;;;;-3.81;100.00;96931.41;6178862;23;20005;-60
2021/12/15 01:58:29;;;;;;;67.20;43.47;;;;;;;-3.75;100.00;96931.31;6179420;23;20494;-61
2021/12/15 02:00:59;;;;;;;50.83;31.58;;;;;;;-3.82;100.00;96929.72;6179131;23;20012;-60
2021/12/15 02:03:25;;;;;;;41.80;27.80;;;;;;;-3.85;100.00;96940.06;6178660;23;20035;-61
2021/12/15 02:05:51;;;;;;;55.10;31.08;;;;;;;-3.89;100.00;96941.81;6179218;23;20001;-61
2021/12/15 02:08:16;;;;;;;49.70;33.50;;;;;;;-3.93;100.00;96941.88;6178931;23;20009;-61
2021/12/15 02:10:45;;;;;;;63.00;33.67;;;;;;;-3.97;100.00;96938.53;6179285;22;20002;-61
2021/12/15 02:13:14;;;;;;;55.08;34.03;;;;;;;-4.00;100.00;96937.72;6179120;23;20032;-60
2021/12/15 02:15:44;;;;;;;51.95;33.47;;;;;;;-3.99;100.00;96937.66;6178944;23;20036;-61
2021/12/15 02:18:16;;;;;;;48.88;32.67;;;;;;;-3.99;100.00;96929.94;6179191;23;20508;-61
2021/12/15 02:20:47;;;;;;;52.78;30.42;;;;;;;-3.96;100.00;96934.22;6179067;23;20379;-60
2021/12/15 02:23:15;;;;;;;54.30;29.90;;;;;;;-3.99;100.00;96927.38;6178692;23;20013;-61
2021/12/15 02:25:41;;;;;;;42.08;29.77;;;;;;;-4.04;100.00;96927.47;6178848;23;20442;-61
2021/12/15 02:28:08;;;;;;;37.58;27.27;;;;;;;-3.99;100.00;96932.53;6178483;23;20009;-60
2021/12/15 02:38:41;;;;;;;34.92;26.45;;;;;;;-4.09;100.00;96933.53;6178956;23;20019;-61
2021/12/15 02:41:13;;;;;;;31.80;24.23;;;;;;;-4.09;100.00;96931.84;6178972;23;20032;-61
2021/12/15 02:43:39;;;;;;;33.88;25.70;;;;;;;-3.94;100.00;96932.47;6179111;23;20009;-60
2021/12/15 02:46:06;;;;;;;34.90;26.77;;;;;;;-4.01;100.00;96942.00;6179098;23;20023;-61
2021/12/15 02:48:32;;;;;;;34.03;26.60;;;;;;;-4.08;100.00;96937.81;6178609;23;20005;-61
2021/12/15 02:50:58;;;;;;;32.58;23.85;;;;;;;-4.06;100.00;96926.63;6178823;23;20005;-61
2021/12/15 02:53:24;;;;;;;36.03;26.60;;;;;;;-3.99;100.00;96927.38;6178816;23;20008;-61
2021/12/15 02:55:49;;;;;;;33.83;24.98;;;;;;;-4.05;100.00;96936.06;6179194;23;20005;-61
2021/12/15 02:58:18;;;;;;;34.78;25.05;;;;;;;-4.07;100.00;96927.50;6178836;23;20024;-61
2021/12/15 03:00:52;;;;;;;32.15;24.85;;;;;;;-4.04;100.00;96929.16;6178647;23;20025;-61
2021/12/15 03:03:49;;;;;;;32.63;24.30;;;;;;;-4.02;100.00;96919.72;6267888;22;20076;-60
2021/12/15 03:06:14;;;;;;;34.88;24.45;;;;;;;-4.03;100.00;96918.88;6305076;22;19999;-60
2021/12/15 03:16:58;;;;;;;46.85;26.10;;;;;;;-4.11;100.00;96943.84;6305433;22;20516;-60
2021/12/15 03:19:24;;;;;;;32.70;22.05;;;;;;;-4.13;100.00;96945.59;6305227;22;20003;-60
2021/12/15 03:21:49;;;;;;;30.70;21.02;;;;;;;-4.14;100.00;96946.47;6305582;22;20018;-60
2021/12/15 03:24:20;;;;;;;28.58;19.08;;;;;;;-4.15;100.00;96952.47;6304898;22;20007;-60
2021/12/15 03:27:03;;;;;;;31.10;20.85;;;;;;;-4.17;100.00;96956.78;6305285;22;20007;-60
2021/12/15 03:35:19;;;;;;;28.35;18.75;;;;;;;-4.27;100.00;96939.78;6305555;22;20014;-60
2021/12/15 03:37:55;;;;;;;43.72;19.33;;;;;;;-4.27;100.00;96935.50;6305105;22;19999;-60
2021/12/15 03:40:29;;;;;;;38.95;16.58;;;;;;;-4.25;100.00;96932.91;6304365;22;20137;-60
2021/12/15 03:43:02;;;;;;;22.27;18.23;;;;;;;-4.30;100.00;96930.38;6305116;22;20506;-60
2021/12/15 03:45:44;;;;;;;24.52;18.05;;;;;;;-4.33;100.00;96925.28;6305282;22;20014;-60
2021/12/15 03:48:14;;;;;;;24.90;17.92;;;;;;;-4.34;100.00;96929.56;6305404;22;20007;-60
2021/12/15 03:50:42;;;;;;;23.77;17.92;;;;;;;-4.37;100.00;96927.03;6305070;22;20064;-60
2021/12/15 03:53:09;;;;;;;26.33;18.85;;;;;;;-4.35;100.00;96927.88;6304857;22;20078;-60
2021/12/15 03:55:35;;;;;;;24.88;18.58;;;;;;;-4.34;100.00;96929.56;6304778;22;20076;-60
2021/12/15 03:58:06;;;;;;;26.90;20.15;;;;;;;-4.28;100.00;96927.81;6305210;22;20003;-60
2021/12/15 04:00:31;;;;;;;24.88;20.23;;;;;;;-4.23;100.00;96929.44;6305107;22;20014;-60
2021/12/15 04:02:57;;;;;;;27.30;19.10;;;;;;;-4.23;100.00;96926.03;6225299;22;20463;-60
2021/12/15 04:05:23;;;;;;;29.13;20.48;;;;;;;-4.25;100.00;96930.34;6152336;23;20055;-60
2021/12/15 04:07:51;;;;;;;27.60;20.30;;;;;;;-4.27;100.00;96926.94;6176923;23;20016;-60
2021/12/15 04:10:22;;;;;;;32.58;20.90;;;;;;;-4.32;100.00;96927.81;6178177;23;20001;-61
2021/12/15 04:12:48;;;;;;;37.53;24.88;;;;;;;-4.36;100.00;96922.75;6178306;23;20062;-60
2021/12/15 04:15:53;;;;;;;31.83;19.67;;;;;;;-4.42;100.00;96927.97;6152122;23;20399;-60
2021/12/15 04:18:06;;;;;;;36.00;20.67;;;;;;;-4.41;100.00;96933.09;6173879;23;20005;-60
2021/12/15 04:20:35;;;;;;;32.05;20.42;;;;;;;-4.41;100.00;96933.09;6178411;23;20065;-60
2021/12/15 04:23:02;;;;;;;31.83;21.75;;;;;;;-4.42;100.00;96933.09;6178427;23;20530;-60
2021/12/15 04:25:32;;;;;;;26.65;19.85;;;;;;;-4.39;100.00;96926.22;6178464;23;20005;-61
2021/12/15 04:28:05;;;;;;;26.20;19.17;;;;;;;-4.37;100.00;96933.91;6178676;23;20009;-60
2021/12/15 04:30:34;;;;;;;27.25;18.45;;;;;;;-4.39;100.00;96930.53;6178648;23;20088;-60
2021/12/15 04:33:07;;;;;;;25.15;18.45;;;;;;;-4.40;100.00;96923.69;6178233;23;20027;-60
2021/12/15 04:35:33;;;;;;;27.05;19.60;;;;;;;-4.39;100.00;96922.81;6178135;23;20011;-60
2021/12/15 04:37:59;;;;;;;27.88;18.40;;;;;;;-4.40;100.00;96916.81;6178328;23;20080;-60
2021/12/15 04:40:24;;;;;;;25.23;18.73;;;;;;;-4.38;100.00;96919.38;6178335;23;20052;-61
2021/12/15 04:42:50;;;;;;;26.02;18.50;;;;;;;-4.36;100.00;96920.19;6178401;23;20495;-61
2021/12/15 04:45:18;;;;;;;28.42;20.63;;;;;;;-4.36;100.00;96921.03;6178078;23;20104;-60
2021/12/15 04:47:44;;;;;;;37.83;21.63;;;;;;;-4.37;100.00;96914.19;6177957;23;20006;-61
2021/12/15 04:50:11;;;;;;;31.13;23.17;;;;;;;-4.40;100.00;96913.41;6178576;23;20009;-61
2021/12/15 04:52:36;;;;;;;49.17;25.75;;;;;;;-4.40;100.00;96908.25;6178064;23;20076;-60
2021/12/15 04:55:04;;;;;;;34.65;24.70;;;;;;;-4.40;100.00;96913.41;6178782;23;20035;-61
2021/12/15 04:57:30;;;;;;;29.05;21.42;;;;;;;-4.40;100.00;96918.53;6178140;23;20505;-61
2021/12/15 04:59:56;;;;;;;35.05;23.17;;;;;;;-4.43;100.00;96913.41;6178476;23;20057;-60
2021/12/15 05:02:23;;;;;;;27.98;21.42;;;;;;;-4.45;100.00;96918.59;6178037;23;20384;-61
2021/12/15 05:04:49;;;;;;;29.08;20.15;;;;;;;-4.47;100.00;96916.03;6177961;23;20478;-61
2021/12/15 05:07:16;;;;;;;37.65;22.02;;;;;;;-4.46;100.00;96911.75;6178110;23;20006;-61
2021/12/15 05:09:44;;;;;;;35.55;24.45;;;;;;;-4.52;100.00;96919.56;6178258;23;20009;-61
2021/12/15 05:12:11;;;;;;;34.75;23.60;;;;;;;-4.56;100.00;96921.28;6178042;23;19997;-61
2021/12/15 05:14:36;;;;;;;40.55;29.27;;;;;;;-4.58;100.00;96920.47;6178076;23;20511;-61
2021/12/15 05:17:03;;;;;;;37.25;23.60;;;;;;;-4.59;100.00;96923.91;6178399;22;20005;-60
2021/12/15 05:19:28;;;;;;;55.63;34.30;;;;;;;-4.60;100.00;96917.91;6178111;23;20496;-61
2021/12/15 05:21:57;;;;;;;73.82;50.35;;;;;;;-4.59;100.00;96913.63;6177575;23;20037;-60
2021/12/15 05:24:31;;;;;;;54.90;35.08;;;;;;;-4.58;100.00;96909.31;6178068;23;20009;-61
2021/12/15 05:27:09;;;;;;;37.88;28.52;;;;;;;-4.56;100.00;96920.44;6179050;23;20070;-61
2021/12/15 05:29:34;;;;;;;37.03;25.92;;;;;;;-4.52;100.00;96924.69;6179381;23;20005;-61
2021/12/15 05:32:00;;;;;;;48.08;22.08;;;;;;;-4.58;100.00;96928.19;6179513;23;20450;-61
2021/12/15 05:34:25;;;;;;;36.53;20.88;;;;;;;-4.61;100.00;96926.50;6178991;23;20008;-61
2021/12/15 05:36:52;;;;;;;39.15;21.70;;;;;;;-4.56;100.00;96935.84;6179290;23;20005;-61
2021/12/15 05:39:19;;;;;;;28.27;20.20;;;;;;;-4.37;100.00;96933.91;6179060;23;20001;-60
2021/12/15 05:41:45;;;;;;;32.80;19.48;;;;;;;-4.47;100.00;96935.75;6179501;23;20019;-60
2021/12/15 05:44:11;;;;;;;29.08;19.45;;;;;;;-4.51;100.00;96934.09;6179371;23;20701;-61
2021/12/15 05:46:36;;;;;;;45.25;32.53;;;;;;;-4.54;100.00;96936.69;6179010;23;20012;-61
2021/12/15 05:49:04;;;;;;;56.83;37.95;;;;;;;-4.54;100.00;96934.13;6179128;23;20455;-61
2021/12/15 05:51:29;;;;;;;54.53;30.60;;;;;;;-4.50;100.00;96938.38;6179009;23;20035;-61
2021/12/15 05:53:55;;;;;;;35.63;25.42;;;;;;;-4.44;100.00;96942.56;6179199;23;20500;-61
2021/12/15 05:56:20;;;;;;;27.00;19.63;;;;;;;-4.47;100.00;96938.34;6179048;23;20012;-61
2021/12/15 05:58:46;;;;;;;25.40;17.73;;;;;;;-4.48;100.00;96937.47;6179553;23;20011;-60
2021/12/15 06:01:11;;;;;;;23.42;15.60;;;;;;;-4.55;100.00;96935.84;6179210;23;20005;-61
2021/12/15 06:03:38;;;;;;;16.90;14.50;;;;;;;-4.57;100.00;96937.59;6178260;23;20024;-61
2021/12/15 06:06:03;;;;;;;17.75;15.38;;;;;;;-4.57;100.00;96932.44;6178997;23;20005;-61
2021/12/15 06:08:29;;;;;;;21.48;15.43;;;;;;;-4.58;100.00;96925.63;6179099;23;20002;-60
2021/12/15 06:10:55;;;;;;;21.63;14.55;;;;;;;-4.57;100.00;96922.16;6178995;23;20050;-61
2021/12/15 06:13:26;;;;;;;16.85;15.00;;;;;;;-4.56;100.00;96921.28;6178849;23;20085;-61
2021/12/15 06:15:53;;;;;;;19.85;14.23;;;;;;;-4.55;100.00;96925.56;6179136;23;20005;-60
2021/12/15 06:18:19;;;;;;;23.48;15.10;;;;;;;-4.60;100.00;96925.63;6179090;23;20009;-61
2021/12/15 06:20:47;;;;;;;21.98;16.48;;;;;;;-4.63;100.00;96928.22;6178611;23;20084;-60
2021/12/15 06:23:20;;;;;;;18.52;15.95;;;;;;;-4.65;100.00;96926.53;6179013;23;20341;-61
2021/12/15 06:25:59;;;;;;;24.63;18.20;;;;;;;-4.65;100.00;96929.09;6179044;23;20005;-61
2021/12/15 06:28:26;;;;;;;23.35;17.48;;;;;;;-4.70;100.00;96933.44;6179009;23;20108;-61
2021/12/15 06:30:53;;;;;;;20.27;15.98;;;;;;;-4.72;100.00;96925.78;6178315;23;20449;-60
2021/12/15 06:33:19;;;;;;;21.40;18.90;;;;;;;-4.71;100.00;96932.63;6178732;23;20005;-61
2021/12/15 06:35:52;;;;;;;23.45;18.17;;;;;;;-4.66;100.00;96935.97;6178895;23;20006;-61
2021/12/15 06:38:19;;;;;;;31.98;21.60;;;;;;;-4.60;100.00;96930.75;6178781;23;20029;-61
2021/12/15 06:40:44;;;;;;;37.72;26.55;;;;;;;-4.72;100.00;96936.06;6178835;23;20009;-60
2021/12/15 06:43:10;;;;;;;40.83;27.15;;;;;;;-4.75;100.00;96930.97;6179178;23;19997;-60
2021/12/15 06:45:46;;;;;;;41.90;27.60;;;;;;;-4.79;100.00;96935.28;6178779;23;20040;-60
2021/12/15 06:59:07;;;;;;;31.42;23.27;;;;;;;-4.73;100.00;96936.94;6177283;23;20028;-60
2021/12/15 07:01:33;;;;;;;31.83;24.63;;;;;;;-4.73;100.00;96936.06;6177605;23;20005;-61
2021/12/15 07:03:58;;;;;;;26.25;21.83;;;;;;;-4.80;100.00;96943.84;6178805;23;20013;-60
2021/12/15 07:06:24;;;;;;;28.92;21.63;;;;;;;-4.82;100.00;96939.59;6177331;23;20058;-61
2021/12/15 07:08:50;;;;;;;33.40;25.35;;;;;;;-4.82;100.00;96948.16;6178199;23;20448;-61
2021/12/15 07:11:16;;;;;;;38.85;27.33;;;;;;;-4.78;100.00;96949.81;6177906;23;20018;-61
2021/12/15 07:13:41;;;;;;;34.00;26.42;;;;;;;-4.73;100.00;96944.63;6175800;23;20005;-60
2021/12/15 07:16:09;;;;;;;32.83;22.85;;;;;;;-4.69;100.00;96951.44;6177751;22;20051;-61
2021/12/15 07:18:46;;;;;;;30.13;23.40;;;;;;;-4.69;100.00;96951.44;6177154;23;20463;-61
2021/12/15 07:21:18;;;;;;;28.23;22.25;;;;;;;-4.67;100.00;96952.28;6176818;23;20036;-61
2021/12/15 07:23:45;;;;;;;29.17;23.05;;;;;;;-4.67;100.00;96953.97;6176440;23;20013;-60
2021/12/15 07:26:11;;;;;;;33.33;22.15;;;;;;;-4.68;100.00;96963.41;6177148;23;20108;-61
2021/12/15 07:28:36;;;;;;;29.80;21.92;;;;;;;-4.65;100.00;96965.09;6176917;23;20096;-61
2021/12/15 07:31:03;;;;;;;35.88;24.55;;;;;;;-4.68;100.00;96963.41;6175987;23;20016;-61
2021/12/15 07:33:28;;;;;;;43.80;25.65;;;;;;;-4.68;100.00;96968.56;6150078;23;20005;-60
2021/12/15 07:35:54;;;;;;;42.10;26.58;;;;;;;-4.67;100.00;96962.56;6177777;23;20001;-61
2021/12/15 07:38:19;;;;;;;42.38;26.17;;;;;;;-4.62;100.00;96960.78;6177134;23;20009;-60
2021/12/15 07:40:45;;;;;;;50.05;29.80;;;;;;;-4.56;100.00;96965.00;6177462;23;20001;-60
2021/12/15 07:43:24;;;;;;;64.90;31.30;;;;;;;-4.48;100.00;96970.06;6176369;23;20111;-60
2021/12/15 07:46:02;;;;;;;45.30;28.02;;;;;;;-4.40;100.00;96973.38;6175593;23;20016;-60
2021/12/15 07:48:36;;;;;;;50.42;28.98;;;;;;;-4.35;100.00;96976.72;6176610;23;20028;-61
2021/12/15 07:51:05;;;;;;;59.05;32.50;;;;;;;-4.33;100.00;96974.97;6178389;22;20631;-61
2021/12/15 07:53:30;;;;;;;59.28;32.08;;;;;;;-4.30;100.00;96973.28;6178026;23;20349;-63
2021/12/15 07:55:57;;;;;;;62.35;34.28;;;;;;;-4.21;100.00;96975.72;6177533;23;20084;-50
2021/12/15 07:58:25;;;;;;;64.82;38.03;;;;;;;-4.20;100.00;96975.72;6177688;23;20009;-48
2021/12/15 08:00:52;;;;;;;64.07;34.53;;;;;;;-4.14;100.00;96974.75;6178616;23;20421;-49
2021/12/15 08:03:18;;;;;;;55.58;34.15;;;;;;;-4.09;100.00;96980.72;6178358;23;20406;-52
2021/12/15 08:05:47;;;;;;;59.05;34.92;;;;;;;-3.99;100.00;96980.56;6179255;23;20127;-48
2021/12/15 08:08:12;;;;;;;65.50;34.85;;;;;;;-3.96;100.00;96985.66;6179383;23;20005;-49
2021/12/15 08:10:38;;;;;;;89.38;47.22;;;;;;;-3.93;100.00;96986.50;6178586;23;20001;-47
2021/12/15 08:13:04;;;;;;;65.82;39.10;;;;;;;-3.86;100.00;96989.84;6178610;23;20016;-49
2021/12/15 08:15:30;;;;;;;65.75;38.67;;;;;;;-3.80;100.00;96991.44;6178674;23;20005;-51
2021/12/15 08:17:55;;;;;;;79.55;44.15;;;;;;;-3.74;100.00;96989.66;6178122;23;20005;-48
2021/12/15 08:20:25;;;;;;;83.53;47.97;;;;;;;-3.63;100.00;96993.81;6178476;23;20004;-48
2021/12/15 08:22:50;;;;;;;74.50;47.78;;;;;;;-3.58;100.00;96989.41;6178656;23;20551;-48
2021/12/15 08:25:17;;;;;;;60.58;41.63;;;;;;;-3.55;100.00;96986.78;6178904;23;20005;-50
2021/12/15 08:27:44;;;;;;;59.85;38.83;;;;;;;-3.48;100.00;96985.81;6178698;23;20005;-47
2021/12/15 08:30:12;;;;;;;58.45;41.70;;;;;;;-3.42;100.00;96986.63;6178413;23;20548;-49
2021/12/15 08:32:39;;;;;;;63.58;43.05;;;;;;;-3.33;100.00;96981.31;6178064;23;20012;-52
2021/12/15 08:35:06;;;;;;;61.35;44.83;;;;;;;-3.21;100.00;96980.25;6178094;23;20035;-50
2021/12/15 08:37:32;;;;;;;71.88;52.97;;;;;;;-3.12;100.00;96980.09;6177176;23;20361;-51
2021/12/15 08:39:58;;;;;;;64.72;48.58;;;;;;;-3.09;100.00;96984.34;6176994;23;20002;-48
2021/12/15 08:42:23;;;;;;;85.38;57.85;;;;;;;-3.07;100.00;96978.31;6178345;23;20014;-52
2021/12/15 08:44:49;;;;;;;81.25;59.55;;;;;;;-3.03;100.00;96974.78;6178341;22;20005;-48
2021/12/15 08:47:14;;;;;;;66.72;54.53;;;;;;;-2.94;100.00;96968.63;6177896;23;20013;-50
2021/12/15 08:49:40;;;;;;;51.55;41.40;;;;;;;-2.81;100.00;96968.38;6177654;23;20035;-49
2021/12/15 08:52:06;;;;;;;55.70;44.13;;;;;;;-2.74;100.00;96969.97;6178114;23;20001;-54
2021/12/15 08:54:33;;;;;;;65.85;50.05;;;;;;;-2.65;100.00;96980.13;6178018;23;20009;-49
2021/12/15 08:56:58;;;;;;;73.35;52.95;;;;;;;-2.63;100.00;96973.19;6178673;23;20001;-53
2021/12/15 08:59:24;;;;;;;88.13;61.20;;;;;;;-2.60;100.00;96974.88;6178503;23;20012;-53
2021/12/15 09:01:51;;;;;;;65.13;48.30;;;;;;;-2.56;100.00;96979.09;6177624;23;20009;-48
2021/12/15 09:04:16;;;;;;;80.97;59.22;;;;;;;-2.56;100.00;96971.34;6177772;23;20012;-48
2021/12/15 09:06:44;;;;;;;100.95;67.30;;;;;;;-2.48;100.00;96978.94;6178093;23;20001;-48
2021/12/15 09:09:12;;;;;;;90.25;63.67;;;;;;;-2.41;100.00;96977.94;6176761;23;20005;-53
2021/12/15 09:11:37;;;;;;;92.05;63.38;;;;;;;-2.39;100.00;96986.50;6177780;23;20009;-48
2021/12/15 09:14:04;;;;;;;85.78;63.00;;;;;;;-2.39;100.00;96986.50;6178818;23;20005;-47
2021/12/15 09:16:32;;;;;;;75.88;58.13;;;;;;;-2.38;100.00;96977.03;6178200;23;20195;-51
2021/12/15 09:19:02;;;;;;;102.80;70.35;;;;;;;-2.35;100.00;96990.69;6178340;23;20054;-50
2021/12/15 09:21:31;;;;;;;97.80;73.22;;;;;;;-2.32;100.00;96990.66;6178295;23;20005;-49
2021/12/15 09:23:59;;;;;;;88.82;67.40;;;;;;;-2.25;100.00;96987.94;6178083;23;20035;-54
2021/12/15 09:26:25;;;;;;;98.78;69.47;;;;;;;-2.28;100.00;96985.44;6151753;23;20492;-55
2021/12/15 09:28:51;;;;;;;85.47;61.53;;;;;;;-2.27;100.00;96992.28;6178314;23;20001;-55
2021/12/15 09:31:17;;;;;;;92.90;64.78;;;;;;;-2.28;100.00;96988.03;6151822;23;20012;-51
2021/12/15 09:33:49;;;;;;;100.13;72.97;;;;;;;-2.08;100.00;96988.47;6178039;23;20005;-47
2021/12/15 09:36:17;;;;;;;98.85;74.50;;;;;;;-1.85;100.00;96992.28;6178464;23;20009;-49
2021/12/15 09:38:44;;;;;;;78.88;59.42;;;;;;;-1.59;100.00;96993.41;6178408;23;20036;-48
2021/12/15 09:41:14;;;;;;;66.70;52.53;;;;;;;-1.32;100.00;96988.47;6176810;23;20357;-52
2021/12/15 09:43:42;;;;;;;93.53;66.53;;;;;;;-1.22;100.00;96992.53;6177237;23;20448;-49
2021/12/15 09:57:24;;;;;;;57.33;45.13;;;;;;;-0.36;100.00;96983.41;6177591;23;20020;-53
2021/12/15 10:03:01;;;;;;;56.50;44.25;;;;;;;0.06;100.00;96984.81;6176350;23;20031;-53
2021/12/15 10:18:47;;;;;;;49.42;37.42;;;;;;;1.14;99.97;96984.91;6172342;23;20088;-48
2021/12/15 10:21:22;;;;;;;43.65;37.60;;;;;;;1.16;98.42;96992.63;6174262;23;20015;-50
2021/12/15 10:23:50;;;;;;;37.47;31.52;;;;;;;1.19;98.30;96980.41;6170509;23;20058;-50
2021/12/15 10:26:17;;;;;;;35.95;30.13;;;;;;;1.32;98.53;96982.56;6171358;23;20039;-52
2021/12/15 10:28:48;;;;;;;23.25;20.67;;;;;;;1.37;97.14;96984.09;6173663;23;20407;-48
2021/12/15 10:31:14;;;;;;;25.85;21.05;;;;;;;1.42;97.42;96986.56;6172532;23;20467;-52
2021/12/15 10:33:47;;;;;;;26.88;22.15;;;;;;;1.53;97.93;96980.97;6171519;23;19997;-48
2021/12/15 10:36:32;;;;;;;26.42;23.33;;;;;;;1.64;96.32;96991.81;6172311;23;20001;-50
2021/12/15 10:39:07;;;;;;;26.50;23.63;;;;;;;1.71;96.29;96974.28;6173492;23;20008;-53
2021/12/15 10:41:39;;;;;;;25.05;22.15;;;;;;;1.79;95.54;96972.25;6146187;23;20024;-49
2021/12/15 10:44:11;;;;;;;18.95;16.83;;;;;;;1.84;94.72;96961.69;6172193;22;20020;-51
2021/12/15 10:46:50;;;;;;;21.00;18.88;;;;;;;2.03;95.56;96961.00;6171913;23;20150;-52
2021/12/15 10:49:24;;;;;;;18.73;16.92;;;;;;;2.12;95.20;96958.06;6174677;23;20488;-52
2021/12/15 10:51:59;;;;;;;19.27;16.70;;;;;;;2.15;94.18;96956.19;6177629;23;20062;-51
2021/12/15 10:54:30;;;;;;;22.23;18.38;;;;;;;2.40;94.84;96955.22;6177913;22;20403;-52
2021/12/15 10:57:08;;;;;;;20.60;18.38;;;;;;;2.41;92.43;96954.31;6178661;23;20005;-54
2021/12/15 10:59:37;;;;;;;22.42;19.55;;;;;;;2.55;93.07;96955.53;6178692;23;20409;-52
2021/12/15 11:02:08;;;;;;;21.10;18.90;;;;;;;2.64;92.34;96954.31;6178238;23;20017;-52
2021/12/15 11:04:50;;;;;;;16.50;14.90;;;;;;;2.98;92.84;96947.72;6178327;23;20088;-54
2021/12/15 11:07:31;;;;;;;11.55;10.55;;;;;;;3.04;92.11;96957.91;6178217;23;20441;-54
2021/12/15 11:10:02;;;;;;;9.85;8.82;;;;;;;3.00;92.07;96951.13;6178327;23;19997;-54
2021/12/15 11:12:31;;;;;;;23.50;19.00;;;;;;;3.14;90.40;96948.78;6178184;23;20005;-51
2021/12/15 11:15:11;;;;;;;31.27;24.33;;;;;;;3.22;89.67;96945.84;6178584;22;20013;-55
2021/12/15 11:17:43;;;;;;;25.17;20.83;;;;;;;3.24;89.07;96944.03;6178513;23;20001;-52
2021/12/15 11:20:13;;;;;;;28.70;25.63;;;;;;;3.35;89.03;96942.72;6179228;23;20005;-51
2021/12/15 11:22:48;;;;;;;23.35;20.98;;;;;;;3.40;88.45;96941.59;6178787;23;20024;-53
2021/12/15 11:25:28;;;;;;;21.42;16.77;;;;;;;3.42;88.49;96942.38;6178136;22;20468;-50
2021/12/15 11:28:00;;;;;;;21.65;18.95;;;;;;;4.04;87.22;96941.41;6178494;23;20005;-52
2021/12/15 11:30:33;;;;;;;21.10;18.25;;;;;;;4.54;85.12;96941.69;6177350;23;20001;-52
2021/12/15 11:33:27;;;;;;;21.98;17.52;;;;;;;4.76;82.06;96935.44;6177734;23;20035;-49
2021/12/15 11:36:01;;;;;;;19.67;17.45;;;;;;;5.08;79.95;96935.59;6178730;23;20013;-51
2021/12/15 11:38:30;;;;;;;16.00;14.32;;;;;;;5.27;79.89;96932.91;6178733;23;20024;-51
2021/12/15 11:40:55;;;;;;;12.52;11.23;;;;;;;5.28;78.57;96926.75;6178720;23;20437;-50
2021/12/15 11:43:30;;;;;;;16.98;13.55;;;;;;;4.87;79.33;96920.09;6178761;23;20005;-54
2021/12/15 11:45:58;;;;;;;17.17;13.35;;;;;;;4.78;80.58;96918.78;6178440;23;20031;-50
2021/12/15 11:48:27;;;;;;;11.65;10.45;;;;;;;4.79;80.66;96912.66;6178431;23;20425;-52
2021/12/15 11:50:56;;;;;;;11.32;10.23;;;;;;;4.56;82.22;96919.84;6178748;23;20005;-51
2021/12/15 11:53:31;;;;;;;15.38;13.85;;;;;;;4.61;82.19;96916.16;6178608;23;20058;-48
2021/12/15 11:56:35;;;;;;;15.20;13.63;;;;;;;4.80;81.92;96910.88;6178804;23;20434;-53
2021/12/15 11:59:34;;;;;;;18.02;14.10;;;;;;;4.83;81.84;96902.88;6178647;23;20007;-51
2021/12/15 12:02:05;;;;;;;11.65;10.60;;;;;;;5.00;81.32;96913.34;6177917;23;20456;-53
2021/12/15 12:04:35;;;;;;;11.35;10.25;;;;;;;5.11;80.64;96910.19;6176998;23;20017;-52
2021/12/15 12:07:27;;;;;;;10.48;9.48;;;;;;;5.02;80.37;96908.03;6176344;23;20005;-47
2021/12/15 12:09:55;;;;;;;11.32;10.20;;;;;;;5.15;81.09;96908.25;6177251;23;20044;-48
2021/12/15 12:12:25;;;;;;;10.00;9.00;;;;;;;5.18;80.81;96900.28;6176900;23;20441;-48
2021/12/15 12:14:52;;;;;;;10.18;9.18;;;;;;;5.04;80.63;96903.59;6150584;23;20457;-51
2021/12/15 12:17:19;;;;;;;10.15;9.10;;;;;;;4.99;80.87;96897.75;6176602;23;20046;-51
2021/12/15 12:19:52;;;;;;;11.30;8.52;;;;;;;4.95;81.13;96898.81;6175761;23;20032;-52
2021/12/15 12:22:20;;;;;;;10.95;9.85;;;;;;;4.89;81.25;96905.22;6175467;23;20043;-51
2021/12/15 12:24:49;;;;;;;11.02;10.00;;;;;;;4.92;81.21;96893.75;6175703;23;20153;-47
2021/12/15 12:27:15;;;;;;;12.63;11.35;;;;;;;4.91;81.52;96899.91;6175660;23;20043;-49
2021/12/15 12:29:42;;;;;;;12.40;11.20;;;;;;;4.82;82.17;96893.38;6176107;23;20001;-52
2021/12/15 12:32:08;;;;;;;12.35;11.05;;;;;;;4.61;82.78;96897.91;6176117;23;20009;-51